Weather at Preston Airport

Public forecast

Using degrees Celsius for public forecast. Weather courtesy of forecast.io.

Closest aviation weather report (METAR) to Preston Airport

Closest report is Frank Pais International Airport, 37.0 nm (68.5 km) W. Retrieved 2021/06/23 20:50 UTC (38 minutes ago):

MUHG 232050Z 06014KT 030V090 9000 SCT045 32/23 Q1016

Closest aviation forecast (TAF) to Preston Airport

Closest forecast is Frank Pais International Airport, 37.0 nm (68.5 km) W. Retrieved 2021/06/23 18:03 UTC (3 hours ago):

TAF MUHG 231700Z 2318/2418 08011KT 9000 SCT030 TEMPO 2318/2324 4000 TSRA SCT018CB BKN020 BECMG 2401/2403 07006KT